createdAt,value
2023-03-29T07:21:25.628Z,91505.94
2023-03-29T07:24:10.634Z,91493.91
2023-03-29T07:27:03.761Z,91512.47
2023-03-29T07:29:49.450Z,91525.28
2023-03-29T07:32:34.468Z,91509.31
2023-03-29T07:35:19.305Z,91516.00
2023-03-29T07:38:04.152Z,91516.50
2023-03-29T07:40:49.084Z,91517.84
2023-03-29T07:43:34.012Z,91524.94
2023-03-29T07:46:19.082Z,91529.66
2023-03-29T07:49:03.914Z,91526.25
2023-03-29T07:51:48.845Z,91510.63
2023-03-29T07:54:33.647Z,91519.56
2023-03-29T07:57:18.539Z,91499.81
2023-03-29T08:00:03.369Z,91503.44
2023-03-29T08:02:48.257Z,91524.66
2023-03-29T08:05:40.940Z,91533.03
2023-03-29T08:08:26.603Z,91533.97
2023-03-29T08:11:11.331Z,91515.66
2023-03-29T08:13:56.294Z,91509.38
2023-03-29T08:16:41.001Z,91500.53
2023-03-29T08:19:25.907Z,91505.75
2023-03-29T08:22:10.692Z,91506.19
2023-03-29T08:24:55.634Z,91513.09
2023-03-29T08:27:40.662Z,91508.47
2023-03-29T08:30:25.551Z,91507.03
2023-03-29T08:33:10.806Z,91523.34
2023-03-29T08:35:55.627Z,91524.78
2023-03-29T08:38:40.595Z,91525.50
2023-03-29T08:41:25.563Z,91537.78
2023-03-29T08:44:10.550Z,91517.41
2023-03-29T08:46:55.515Z,91518.50
2023-03-29T08:49:40.309Z,91515.03
2023-03-29T08:52:25.262Z,91510.38
2023-03-29T08:55:10.102Z,91508.44
2023-03-29T08:57:55.008Z,91529.50
2023-03-29T09:00:39.727Z,91513.97
2023-03-29T09:03:24.676Z,91495.81
2023-03-29T09:06:09.372Z,91498.16
2023-03-29T09:08:54.600Z,91505.88
2023-03-29T09:11:39.225Z,91507.53
2023-03-29T09:14:24.123Z,91516.38
2023-03-29T09:17:08.820Z,91514.34
2023-03-29T09:19:53.765Z,91516.56
2023-03-29T09:22:38.795Z,91516.28
2023-03-29T09:25:23.546Z,91524.28
2023-03-29T09:28:08.574Z,91522.22
2023-03-29T09:30:53.272Z,91526.84
2023-03-29T09:33:38.088Z,91531.78
2023-03-29T09:36:22.939Z,91527.16
2023-03-29T09:39:07.781Z,91535.78
2023-03-29T09:41:52.639Z,91531.47
2023-03-29T09:44:37.560Z,91563.06
2023-03-29T09:53:00.720Z,91555.53
2023-03-29T09:55:46.304Z,91554.06
2023-03-29T09:58:32.305Z,91549.44
2023-03-29T10:01:17.091Z,91554.75
2023-03-29T10:04:02.084Z,91563.63
2023-03-29T10:06:46.998Z,91550.19
2023-03-29T10:09:31.872Z,91536.59
2023-03-29T10:12:16.840Z,91530.06
2023-03-29T10:15:01.750Z,91522.72
2023-03-29T10:17:46.714Z,91521.69
2023-03-29T10:20:31.539Z,91519.38
2023-03-29T10:23:16.450Z,91524.31
2023-03-29T10:26:01.295Z,91522.06
2023-03-29T10:28:46.176Z,91509.44
2023-03-29T10:31:31.007Z,91513.97
2023-03-29T10:34:15.940Z,91518.25
2023-03-29T10:37:00.855Z,91513.69
2023-03-29T10:39:45.701Z,91500.09
2023-03-29T10:42:30.431Z,91495.25
2023-03-29T10:45:15.274Z,91491.81
2023-03-29T10:48:00.171Z,91491.69
2023-03-29T10:50:45.006Z,91499.34
2023-03-29T10:53:29.723Z,91505.28
2023-03-29T10:56:14.551Z,91525.63
2023-03-29T10:58:59.507Z,91517.81
2023-03-29T11:01:44.492Z,91537.00
2023-03-29T11:04:29.269Z,91550.53
2023-03-29T11:07:14.194Z,91544.75
2023-03-29T11:09:59.034Z,91543.84
2023-03-29T11:12:43.906Z,91525.56
2023-03-29T11:15:28.797Z,91511.13
2023-03-29T11:18:13.799Z,91523.66
2023-03-29T11:20:58.666Z,91532.66
2023-03-29T11:23:43.532Z,91541.00
2023-03-29T11:26:28.492Z,91556.88
2023-03-29T11:29:13.392Z,91568.13
2023-03-29T11:31:58.384Z,91561.31
2023-03-29T11:34:43.170Z,91560.50
2023-03-29T11:37:28.109Z,91553.78
2023-03-29T11:40:12.882Z,91549.47
2023-03-29T11:42:57.979Z,91563.34
2023-03-29T11:45:42.903Z,91574.59
2023-03-29T11:48:27.882Z,91558.25
2023-03-29T11:51:12.887Z,91586.03
2023-03-29T11:53:57.777Z,91575.97
2023-03-29T11:56:42.663Z,91572.16
2023-03-29T11:59:27.443Z,91586.38
2023-03-29T12:02:12.404Z,91602.72
2023-03-29T12:04:57.224Z,91611.44
2023-03-29T12:07:42.088Z,91601.81
2023-03-29T12:10:26.838Z,91604.63
2023-03-29T12:13:11.864Z,91609.13
2023-03-29T12:15:56.772Z,91607.97
2023-03-29T12:18:41.603Z,91600.16
2023-03-29T12:21:26.701Z,91596.78
2023-03-29T12:24:11.643Z,91590.97
2023-03-29T12:26:56.567Z,91594.09
2023-03-29T12:29:41.439Z,91588.25
2023-03-29T12:32:26.441Z,91595.78
2023-03-29T12:35:11.167Z,91596.13
2023-03-29T12:37:56.183Z,91598.94
2023-03-29T12:40:41.031Z,91590.81
2023-03-29T12:43:25.792Z,91595.53
2023-03-29T12:46:10.772Z,91599.00
2023-03-29T12:48:55.652Z,91600.78
2023-03-29T12:51:40.625Z,91595.31
2023-03-29T12:54:27.916Z,91596.81
2023-03-29T12:57:12.935Z,91611.09
2023-03-29T12:59:57.723Z,91602.31
2023-03-29T13:02:42.619Z,91584.38
2023-03-29T13:05:27.714Z,91582.50
2023-03-29T13:08:12.554Z,91587.84
2023-03-29T13:10:57.435Z,91587.50
2023-03-29T13:13:42.232Z,91594.84
2023-03-29T13:16:27.096Z,91598.03
2023-03-29T13:19:11.852Z,91615.63
2023-03-29T13:21:56.754Z,91633.03
2023-03-29T13:24:41.756Z,91617.56
2023-03-29T13:27:26.451Z,91617.59
2023-03-29T13:30:11.397Z,91623.13
2023-03-29T13:32:56.195Z,91606.66
2023-03-29T13:35:41.149Z,91593.63
2023-03-29T13:38:25.925Z,91589.03
2023-03-29T13:41:10.928Z,91593.00
2023-03-29T13:43:55.757Z,91588.63
2023-03-29T13:46:40.734Z,91596.19
2023-03-29T13:49:25.582Z,91594.06
2023-03-29T13:52:10.592Z,91599.78
2023-03-29T13:54:55.534Z,91600.41
2023-03-29T13:57:40.459Z,91589.63
2023-03-29T14:00:25.368Z,91579.94
2023-03-29T14:03:10.277Z,91574.25
2023-03-29T14:05:55.049Z,91574.91
2023-03-29T14:08:39.898Z,91568.81
2023-03-29T14:11:24.855Z,91566.31
2023-03-29T14:14:09.709Z,91582.66
2023-03-29T14:16:54.688Z,91587.53
2023-03-29T14:19:39.542Z,91600.84
2023-03-29T14:22:24.520Z,91604.06
2023-03-29T14:25:09.441Z,91594.81
2023-03-29T14:27:54.162Z,91583.16
2023-03-29T14:30:39.072Z,91572.31
2023-03-29T14:33:23.861Z,91583.75
2023-03-29T14:36:08.829Z,91584.22
2023-03-29T14:38:53.543Z,91583.47
2023-03-29T14:41:38.469Z,91577.75
2023-03-29T14:44:23.381Z,91570.56
2023-03-29T14:47:08.181Z,91562.94
2023-03-29T14:49:53.107Z,91564.09
2023-03-29T14:52:37.901Z,91546.00
2023-03-29T14:55:23.000Z,91543.53
2023-03-29T14:58:09.505Z,91540.59
2023-03-29T15:00:55.734Z,91540.19
2023-03-29T15:03:40.993Z,91528.56
2023-03-29T15:06:25.650Z,91530.38
2023-03-29T15:09:10.611Z,91523.59
2023-03-29T15:11:55.482Z,91526.25
2023-03-29T15:14:40.234Z,91516.94
2023-03-29T15:17:25.114Z,91514.00
2023-03-29T15:20:09.848Z,91511.53
2023-03-29T15:22:54.873Z,91511.47
2023-03-29T15:25:39.437Z,91503.69
2023-03-29T15:28:24.565Z,91498.34
2023-03-29T15:31:09.321Z,91496.50
2023-03-29T15:33:54.231Z,91485.41
2023-03-29T15:36:39.072Z,91479.19
2023-03-29T15:39:24.060Z,91478.00
2023-03-29T15:42:08.943Z,91468.94
2023-03-29T15:44:53.700Z,91463.69
2023-03-29T15:47:38.696Z,91469.13
2023-03-29T15:50:23.478Z,91456.72
2023-03-29T15:53:15.018Z,91454.06
2023-03-29T15:56:00.539Z,91460.09
2023-03-29T15:58:45.198Z,91452.16
2023-03-29T16:01:30.203Z,91450.13
2023-03-29T16:04:15.042Z,91448.03
2023-03-29T16:07:00.001Z,91451.94
2023-03-29T16:09:44.818Z,91443.56
2023-03-29T16:12:29.721Z,91449.75
2023-03-29T16:15:14.479Z,91440.78
2023-03-29T16:17:59.438Z,91423.53
2023-03-29T16:20:44.261Z,91415.91
2023-03-29T16:23:29.126Z,91408.94
2023-03-29T16:26:14.160Z,91416.91
2023-03-29T16:28:59.012Z,91405.59
2023-03-29T16:31:43.999Z,91404.63
2023-03-29T16:34:28.824Z,91397.69
2023-03-29T16:37:13.753Z,91399.88
2023-03-29T16:39:58.542Z,91385.41
2023-03-29T16:42:43.597Z,91387.84
2023-03-29T16:45:28.489Z,91390.19
2023-03-29T16:48:13.476Z,91387.22
2023-03-29T16:50:58.478Z,91383.13
2023-03-29T16:53:43.218Z,91384.06
2023-03-29T16:56:28.249Z,91386.44
2023-03-29T16:59:12.987Z,91382.69
2023-03-29T17:01:57.835Z,91383.69
2023-03-29T17:04:42.809Z,91375.97
2023-03-29T17:07:27.620Z,91381.44
2023-03-29T17:10:12.670Z,91380.19
2023-03-29T17:12:57.427Z,91379.69
2023-03-29T17:15:42.398Z,91385.91
2023-03-29T17:18:27.154Z,91384.56
2023-03-29T17:21:12.140Z,91371.38
2023-03-29T17:23:56.916Z,91385.31
2023-03-29T17:26:43.819Z,91389.78
2023-03-29T17:29:30.147Z,91384.56
2023-03-29T17:32:14.883Z,91389.00
2023-03-29T17:34:59.709Z,91382.34
2023-03-29T17:37:44.555Z,91393.69
2023-03-29T17:40:29.510Z,91393.59
2023-03-29T17:43:14.241Z,91383.81
2023-03-29T17:45:59.036Z,91389.81
2023-03-29T17:48:43.870Z,91393.53
2023-03-29T17:51:28.699Z,91387.06
2023-03-29T17:54:13.614Z,91382.78
2023-03-29T17:56:58.648Z,91394.81
2023-03-29T17:59:43.556Z,91394.97
2023-03-29T18:02:28.463Z,91392.47
2023-03-29T18:05:13.366Z,91389.91
2023-03-29T18:07:58.119Z,91380.59
2023-03-29T18:10:42.974Z,91391.00
2023-03-29T18:13:27.858Z,91402.72
2023-03-29T18:16:12.737Z,91404.78
2023-03-29T18:18:57.541Z,91416.94
2023-03-29T18:21:42.282Z,91420.94
2023-03-29T18:24:27.224Z,91416.47
2023-03-29T18:27:12.052Z,91405.31
2023-03-29T18:29:56.855Z,91402.66
2023-03-29T18:32:41.615Z,91421.97
2023-03-29T18:35:26.405Z,91420.00
2023-03-29T18:38:11.243Z,91411.72
2023-03-29T18:40:56.115Z,91415.06
2023-03-29T18:43:41.044Z,91417.75
2023-03-29T18:46:26.018Z,91419.94
2023-03-29T18:49:10.842Z,91416.78
2023-03-29T18:51:55.742Z,91430.28
2023-03-29T18:54:40.627Z,91430.19
2023-03-29T18:57:25.486Z,91438.09
2023-03-29T19:00:10.349Z,91424.28
2023-03-29T19:02:55.236Z,91425.47
2023-03-29T19:05:40.153Z,91437.00
2023-03-29T19:08:25.192Z,91422.91
2023-03-29T19:11:10.030Z,91423.00
2023-03-29T19:13:54.992Z,91426.16
2023-03-29T19:16:42.767Z,91431.47
2023-03-29T19:19:27.732Z,91430.28
2023-03-29T19:22:12.709Z,91436.72
2023-03-29T19:24:57.555Z,91435.09
2023-03-29T19:27:42.475Z,91433.63
2023-03-29T19:30:27.367Z,91447.16
2023-03-29T19:33:12.357Z,91448.94
2023-03-29T19:35:57.134Z,91442.16
2023-03-29T19:38:42.024Z,91444.41
2023-03-29T19:41:26.799Z,91449.41
2023-03-29T19:44:11.853Z,91450.84
2023-03-29T19:46:56.859Z,91447.16
2023-03-29T19:49:41.695Z,91450.63
2023-03-29T19:52:26.689Z,91441.81
2023-03-29T19:55:11.446Z,91435.63
2023-03-29T19:57:56.364Z,91434.88
2023-03-29T20:00:41.278Z,91433.38
2023-03-29T20:03:26.060Z,91439.78
2023-03-29T20:06:10.926Z,91441.81
2023-03-29T20:08:55.805Z,91437.63
2023-03-29T20:11:40.690Z,91438.69
2023-03-29T20:14:25.668Z,91433.72
2023-03-29T20:17:10.643Z,91430.56
2023-03-29T20:19:55.416Z,91431.19
2023-03-29T20:22:40.402Z,91429.44
2023-03-29T20:25:25.119Z,91439.09
2023-03-29T20:28:10.020Z,91431.16
2023-03-29T20:30:54.825Z,91430.94
2023-03-29T20:33:39.877Z,91422.41
2023-03-29T20:36:24.771Z,91424.72
2023-03-29T20:39:09.644Z,91428.75
2023-03-29T20:41:54.480Z,91420.66
2023-03-29T20:44:39.373Z,91417.50
2023-03-29T20:47:24.312Z,91417.41
2023-03-29T20:50:09.008Z,91426.56
2023-03-29T20:52:53.755Z,91416.84
2023-03-29T20:55:38.597Z,91419.09
2023-03-29T20:58:23.587Z,91427.97
